createdAt,value
2022-09-28T00:01:27.115Z,77.08
2022-09-28T00:03:59.906Z,76.66
2022-09-28T00:06:30.169Z,76.74
2022-09-28T00:08:59.341Z,77.23
2022-09-28T00:11:29.193Z,77.38
2022-09-28T00:14:02.150Z,76.90
2022-09-28T00:16:35.031Z,77.59
2022-09-28T00:19:06.557Z,77.58
2022-09-28T00:21:37.430Z,76.90
2022-09-28T00:24:14.904Z,77.10
2022-09-28T00:26:46.401Z,77.03
2022-09-28T00:29:18.842Z,77.02
2022-09-28T00:31:49.682Z,76.54
2022-09-28T00:34:18.136Z,76.56
2022-09-28T00:36:48.035Z,76.71
2022-09-28T00:39:17.493Z,76.86
2022-09-28T00:41:47.244Z,76.67
2022-09-28T00:44:35.881Z,77.07
2022-09-28T00:47:33.238Z,77.15
2022-09-28T00:50:04.590Z,76.83
2022-09-28T00:52:37.832Z,76.78
2022-09-28T00:55:10.907Z,77.39
2022-09-28T00:57:41.662Z,77.47
2022-09-28T01:00:11.757Z,76.61
2022-09-28T01:02:41.747Z,76.53
2022-09-28T01:05:12.223Z,77.17
2022-09-28T01:07:41.532Z,76.68
2022-09-28T01:10:10.504Z,76.81
2022-09-28T01:12:39.094Z,76.49
2022-09-28T01:15:08.155Z,77.29
2022-09-28T01:17:49.292Z,76.65
2022-09-28T01:20:50.053Z,77.50
2022-09-28T01:23:38.671Z,76.84
2022-09-28T01:26:35.979Z,77.63
2022-09-28T01:29:11.107Z,76.93
2022-09-28T01:31:42.641Z,76.77
2022-09-28T01:34:17.046Z,76.69
2022-09-28T01:36:50.621Z,77.02
2022-09-28T01:39:24.216Z,77.51
2022-09-28T01:41:57.806Z,77.16
2022-09-28T01:44:29.377Z,77.23
2022-09-28T01:47:03.688Z,77.31
2022-09-28T01:49:38.311Z,77.19
2022-09-28T01:52:15.477Z,77.63
2022-09-28T01:54:48.260Z,77.08
2022-09-28T01:57:23.110Z,77.11
2022-09-28T01:59:59.872Z,77.59
2022-09-28T02:02:33.305Z,77.63
2022-09-28T02:05:06.369Z,77.22
2022-09-28T02:07:39.475Z,77.69
2022-09-28T02:10:15.826Z,77.78
2022-09-28T02:12:50.099Z,77.81
2022-09-28T02:15:21.654Z,77.86
2022-09-28T02:17:50.459Z,77.69
2022-09-28T02:20:19.316Z,77.79
2022-09-28T02:22:50.874Z,77.44
2022-09-28T02:25:27.547Z,77.69
2022-09-28T02:28:02.480Z,77.28
2022-09-28T02:30:31.611Z,77.14
2022-09-28T02:33:09.806Z,78.05
2022-09-28T02:35:39.643Z,77.68
2022-09-28T02:38:08.159Z,77.70
2022-09-28T02:40:38.416Z,77.66
2022-09-28T02:43:19.234Z,77.61
2022-09-28T02:46:04.377Z,77.42
2022-09-28T02:49:05.003Z,77.90
2022-09-28T02:51:46.939Z,78.19
2022-09-28T02:54:54.071Z,77.92
2022-09-28T02:57:36.733Z,77.54
2022-09-28T03:00:10.473Z,77.65
2022-09-28T03:02:52.213Z,77.72
2022-09-28T03:05:23.850Z,77.35
2022-09-28T03:07:59.947Z,77.35
2022-09-28T03:10:38.259Z,77.98
2022-09-28T03:13:07.671Z,77.67
2022-09-28T03:15:37.665Z,77.89
2022-09-28T03:18:06.082Z,78.01
2022-09-28T03:20:35.244Z,78.08
2022-09-28T03:23:23.819Z,78.45
2022-09-28T03:25:52.687Z,78.64
2022-09-28T03:28:21.961Z,78.56
2022-09-28T03:30:52.288Z,78.71
2022-09-28T03:33:20.787Z,78.14
2022-09-28T03:35:50.439Z,77.85
2022-09-28T03:38:19.340Z,77.96
2022-09-28T03:40:54.436Z,77.99
2022-09-28T03:43:23.474Z,78.52
2022-09-28T03:45:57.673Z,78.09
2022-09-28T03:48:32.143Z,78.34
2022-09-28T03:51:02.467Z,78.39
2022-09-28T03:53:31.044Z,78.40
2022-09-28T03:56:04.541Z,78.21
2022-09-28T03:58:33.438Z,78.22
2022-09-28T04:01:07.809Z,77.89
2022-09-28T04:03:37.057Z,77.75
2022-09-28T04:06:05.732Z,77.84
2022-09-28T04:08:34.068Z,78.31
2022-09-28T04:11:03.331Z,78.31
2022-09-28T04:13:32.101Z,77.70
2022-09-28T04:16:02.280Z,78.15
2022-09-28T04:18:32.750Z,77.96
2022-09-28T04:21:06.606Z,78.27
2022-09-28T04:23:36.181Z,77.32
2022-09-28T04:26:05.605Z,78.29
2022-09-28T04:28:51.602Z,77.54
2022-09-28T04:31:22.788Z,77.95
2022-09-28T04:33:53.604Z,77.62
2022-09-28T04:36:22.326Z,77.62
2022-09-28T04:38:53.788Z,78.06
2022-09-28T04:41:23.194Z,78.31
2022-09-28T04:43:51.985Z,78.14
2022-09-28T04:46:20.501Z,78.40
2022-09-28T04:48:48.909Z,78.03
2022-09-28T04:51:18.611Z,78.06
2022-09-28T04:53:46.950Z,77.80
2022-09-28T04:56:16.433Z,78.06
2022-09-28T04:58:48.990Z,77.63
2022-09-28T05:01:23.616Z,78.43
2022-09-28T05:03:52.343Z,78.10
2022-09-28T05:06:22.919Z,78.20
2022-09-28T05:08:51.231Z,78.26
2022-09-28T05:11:21.375Z,77.72
2022-09-28T05:13:51.422Z,78.74
2022-09-28T05:16:20.476Z,79.04
2022-09-28T05:18:48.950Z,78.65
2022-09-28T05:21:19.577Z,79.12
2022-09-28T05:23:49.292Z,79.03
2022-09-28T05:26:17.601Z,78.57
2022-09-28T05:28:46.003Z,79.02
2022-09-28T05:31:15.165Z,79.43
2022-09-28T05:33:45.640Z,79.70
2022-09-28T05:36:13.934Z,79.33
2022-09-28T05:38:42.228Z,79.92
2022-09-28T05:41:12.217Z,79.84
2022-09-28T05:43:40.597Z,79.95
2022-09-28T05:46:09.031Z,79.67
2022-09-28T05:48:37.362Z,79.77
2022-09-28T05:51:05.863Z,79.78
2022-09-28T05:53:34.223Z,79.36
2022-09-28T05:56:03.212Z,79.72
2022-09-28T05:58:32.973Z,79.75
2022-09-28T06:01:02.982Z,79.61
2022-09-28T06:03:31.322Z,79.64
2022-09-28T06:06:02.387Z,79.44
2022-09-28T06:08:32.087Z,79.31
2022-09-28T06:11:02.203Z,80.17
2022-09-28T06:13:32.231Z,79.57
2022-09-28T06:16:01.115Z,79.87
2022-09-28T06:18:29.415Z,79.76
2022-09-28T06:20:58.241Z,79.65
2022-09-28T06:23:26.565Z,80.01
2022-09-28T06:25:54.891Z,80.09
2022-09-28T06:28:23.276Z,79.46
2022-09-28T06:30:53.295Z,79.75
2022-09-28T06:33:21.851Z,79.76
2022-09-28T06:35:50.450Z,79.56
2022-09-28T06:38:19.096Z,79.20
2022-09-28T06:40:47.453Z,79.69
2022-09-28T06:43:16.168Z,79.64
2022-09-28T06:45:45.303Z,79.64
2022-09-28T06:48:15.388Z,79.62
2022-09-28T06:50:43.889Z,79.88
2022-09-28T06:53:14.685Z,80.07
2022-09-28T06:55:46.142Z,79.61
2022-09-28T06:58:17.111Z,79.31
2022-09-28T07:00:45.600Z,79.32
2022-09-28T07:03:17.016Z,80.38
2022-09-28T07:05:47.017Z,79.84
2022-09-28T07:08:16.645Z,80.36
2022-09-28T07:10:46.388Z,80.28
2022-09-28T07:13:38.150Z,80.37
2022-09-28T07:16:05.260Z,80.23
2022-09-28T07:18:35.341Z,80.22
2022-09-28T07:21:08.829Z,79.89
2022-09-28T07:23:50.376Z,80.33
2022-09-28T07:26:23.991Z,80.58
2022-09-28T07:28:54.253Z,80.71
2022-09-28T07:31:25.206Z,80.38
2022-09-28T07:33:56.449Z,80.41
2022-09-28T07:36:24.766Z,80.60
2022-09-28T07:38:53.108Z,80.62
2022-09-28T07:41:32.182Z,81.36
2022-09-28T07:44:06.087Z,81.22
2022-09-28T07:46:34.713Z,81.01
2022-09-28T07:49:09.782Z,80.91
2022-09-28T07:51:43.514Z,80.90
2022-09-28T07:54:11.919Z,81.20
2022-09-28T07:56:40.262Z,81.14
2022-09-28T07:59:08.581Z,81.37
2022-09-28T08:01:36.996Z,80.94
2022-09-28T08:04:06.890Z,81.02
2022-09-28T08:06:35.282Z,81.51
2022-09-28T08:09:03.775Z,81.30
2022-09-28T08:11:32.161Z,81.59
2022-09-28T08:14:00.674Z,81.70
2022-09-28T08:16:30.198Z,82.01
2022-09-28T08:18:58.598Z,81.80
2022-09-28T08:21:47.776Z,81.83
2022-09-28T08:24:18.158Z,82.06
2022-09-28T08:26:47.150Z,82.21
2022-09-28T08:29:16.957Z,82.47
2022-09-28T08:31:45.292Z,82.46
2022-09-28T08:34:14.020Z,82.47
2022-09-28T08:36:43.723Z,81.74
2022-09-28T08:39:12.763Z,81.82
2022-09-28T08:41:50.558Z,82.22
2022-09-28T08:44:24.202Z,82.19
2022-09-28T08:46:57.101Z,82.24
2022-09-28T08:49:30.286Z,82.42
2022-09-28T08:52:04.574Z,82.45
2022-09-28T08:54:40.538Z,82.00
2022-09-28T08:57:13.596Z,82.50
2022-09-28T08:59:53.006Z,82.09
2022-09-28T09:02:27.145Z,82.27
2022-09-28T09:04:56.997Z,82.47
2022-09-28T09:08:13.427Z,82.66
2022-09-28T09:10:51.610Z,82.73
2022-09-28T09:13:51.761Z,82.63
2022-09-28T09:16:34.080Z,82.44
2022-09-28T09:19:15.981Z,82.40
2022-09-28T09:21:53.439Z,82.66
2022-09-28T09:24:27.293Z,82.80
2022-09-28T09:27:06.550Z,82.98
2022-09-28T09:29:55.531Z,83.07
2022-09-28T09:32:41.203Z,82.67
2022-09-28T09:35:50.407Z,82.85
2022-09-28T09:38:35.598Z,82.74
2022-09-28T09:41:17.217Z,82.60
2022-09-28T09:44:07.128Z,82.46
2022-09-28T09:46:41.263Z,82.41
2022-09-28T09:49:16.892Z,82.52
2022-09-28T09:51:50.023Z,82.57
2022-09-28T09:54:25.024Z,82.25
2022-09-28T09:56:58.426Z,82.72
2022-09-28T09:59:33.708Z,82.85
2022-09-28T10:02:04.065Z,82.61
2022-09-28T10:04:38.200Z,82.87
2022-09-28T10:07:10.323Z,83.22
2022-09-28T10:09:43.411Z,82.89
2022-09-28T10:12:17.298Z,83.04
2022-09-28T10:14:47.457Z,82.71
2022-09-28T10:17:20.072Z,83.20
2022-09-28T10:19:48.508Z,83.10
2022-09-28T10:22:21.631Z,83.07
2022-09-28T10:24:55.243Z,82.76
2022-09-28T10:27:27.406Z,82.33
2022-09-28T10:30:00.623Z,82.54
2022-09-28T10:32:40.901Z,82.42
2022-09-28T10:35:15.907Z,82.28
2022-09-28T10:37:54.275Z,82.07
2022-09-28T10:40:45.854Z,82.09
2022-09-28T10:43:21.488Z,81.85
2022-09-28T10:46:01.871Z,81.96
2022-09-28T10:48:38.614Z,82.17
2022-09-28T10:51:09.178Z,82.17
2022-09-28T10:53:38.462Z,81.75
2022-09-28T10:56:08.800Z,81.85
2022-09-28T10:58:40.949Z,81.97
2022-09-28T11:01:14.105Z,82.22
2022-09-28T11:03:51.971Z,82.37
2022-09-28T11:06:29.942Z,82.41
2022-09-28T11:09:02.411Z,82.27
2022-09-28T11:11:32.010Z,82.49
2022-09-28T11:14:03.454Z,82.39
2022-09-28T11:16:34.862Z,82.48
2022-09-28T11:19:06.822Z,82.37
2022-09-28T11:21:43.220Z,82.32
2022-09-28T11:24:21.487Z,82.14
2022-09-28T11:26:52.907Z,81.98
2022-09-28T11:29:26.772Z,82.08
2022-09-28T11:32:01.206Z,82.28
2022-09-28T11:34:58.265Z,82.00
2022-09-28T11:37:41.781Z,82.18
2022-09-28T11:40:27.933Z,82.17
2022-09-28T11:43:10.699Z,82.36
2022-09-28T11:45:51.387Z,82.16
2022-09-28T11:48:26.686Z,82.10
2022-09-28T11:51:01.124Z,82.03
2022-09-28T11:53:36.022Z,82.10
2022-09-28T11:56:11.846Z,82.25
2022-09-28T11:58:44.800Z,82.30
2022-09-28T12:01:23.158Z,82.37
2022-09-28T12:03:56.737Z,82.42
2022-09-28T12:06:32.453Z,82.56
2022-09-28T12:09:09.357Z,82.64
2022-09-28T12:11:43.418Z,82.66
2022-09-28T12:14:19.762Z,82.47
2022-09-28T12:17:05.894Z,82.67
2022-09-28T12:19:42.190Z,82.73
2022-09-28T12:22:17.390Z,82.86
2022-09-28T12:24:48.646Z,82.72
2022-09-28T12:27:25.047Z,82.55
2022-09-28T12:29:59.422Z,82.41
2022-09-28T12:32:35.597Z,82.43
2022-09-28T12:35:13.062Z,82.44
2022-09-28T12:37:59.056Z,82.48
2022-09-28T12:40:38.293Z,82.23
2022-09-28T12:43:29.082Z,82.25
2022-09-28T12:46:17.480Z,82.10
2022-09-28T12:49:51.556Z,82.41
2022-09-28T12:51:54.644Z,82.49
2022-09-28T12:54:41.318Z,82.60
2022-09-28T12:57:30.087Z,82.67
2022-09-28T13:00:04.477Z,82.81
2022-09-28T13:02:59.946Z,82.76
2022-09-28T13:06:10.109Z,82.64
2022-09-28T13:08:51.297Z,82.93
2022-09-28T13:11:31.986Z,82.83
2022-09-28T13:14:12.494Z,82.83
2022-09-28T13:16:47.235Z,83.16
2022-09-28T13:19:19.747Z,82.80
2022-09-28T13:21:57.813Z,82.78
2022-09-28T13:24:35.114Z,82.95
2022-09-28T13:27:08.418Z,82.82
2022-09-28T13:32:09.561Z,82.58
2022-09-28T13:34:39.657Z,82.42
2022-09-28T13:37:21.564Z,82.38
2022-09-28T13:39:53.140Z,82.40
2022-09-28T13:42:47.422Z,82.28
2022-09-28T13:45:33.696Z,82.04
2022-09-28T13:48:12.586Z,81.99
2022-09-28T13:51:07.521Z,81.79
2022-09-28T13:53:53.028Z,81.87
2022-09-28T13:56:34.178Z,81.85
2022-09-28T13:59:10.967Z,81.95
2022-09-28T14:01:43.481Z,82.49
2022-09-28T14:04:17.664Z,82.48
2022-09-28T14:06:54.787Z,82.64
2022-09-28T14:09:40.965Z,82.71
2022-09-28T14:12:31.206Z,82.84
2022-09-28T14:15:00.878Z,82.77
2022-09-28T14:17:59.178Z,82.69
2022-09-28T14:20:31.403Z,82.51
2022-09-28T14:23:47.290Z,82.50
2022-09-28T14:26:49.028Z,82.36
2022-09-28T14:29:28.554Z,82.38
2022-09-28T14:31:58.783Z,82.40
2022-09-28T14:34:34.259Z,82.56
2022-09-28T14:37:22.125Z,82.58
2022-09-28T14:40:08.720Z,82.68
2022-09-28T14:42:37.251Z,82.47
2022-09-28T14:45:36.408Z,82.53
2022-09-28T14:48:21.665Z,82.31
2022-09-28T14:50:50.243Z,82.34
2022-09-28T14:53:22.093Z,82.45
2022-09-28T14:55:55.377Z,82.65
2022-09-28T14:58:26.934Z,82.65
2022-09-28T15:01:10.893Z,82.70
2022-09-28T15:03:43.291Z,82.64
2022-09-28T15:06:16.978Z,82.59
2022-09-28T15:08:45.418Z,82.62
2022-09-28T15:11:18.103Z,82.64
2022-09-28T15:13:46.728Z,82.63
2022-09-28T15:16:18.626Z,82.71
2022-09-28T15:19:22.797Z,82.90
2022-09-28T15:21:52.239Z,82.95
2022-09-28T15:24:35.196Z,83.35
2022-09-28T15:27:05.855Z,83.16
2022-09-28T15:29:34.256Z,83.24
2022-09-28T15:32:04.702Z,83.31
2022-09-28T15:34:51.751Z,83.58
2022-09-28T15:37:24.075Z,83.38
2022-09-28T15:39:54.767Z,83.40
2022-09-28T15:42:23.454Z,83.57
2022-09-28T15:45:04.378Z,83.86
2022-09-28T15:47:35.211Z,84.30
2022-09-28T15:50:09.293Z,84.08
2022-09-28T15:52:41.325Z,84.40
2022-09-28T15:55:21.730Z,83.99
2022-09-28T15:57:50.476Z,84.08
2022-09-28T16:00:28.177Z,84.09
2022-09-28T16:03:21.899Z,83.87
2022-09-28T16:05:52.604Z,84.15
2022-09-28T16:08:24.975Z,84.06
2022-09-28T16:11:05.044Z,84.22
2022-09-28T16:13:34.942Z,84.16
2022-09-28T16:16:03.597Z,84.55
2022-09-28T16:18:41.451Z,83.96
2022-09-28T16:21:46.428Z,84.23
2022-09-28T16:24:24.699Z,84.35
2022-09-28T16:26:59.307Z,84.38
2022-09-28T16:29:35.737Z,84.21
2022-09-28T16:32:41.717Z,84.24
2022-09-28T16:35:20.379Z,84.41
2022-09-28T16:37:56.017Z,84.22
2022-09-28T16:40:24.565Z,83.98
2022-09-28T16:42:56.194Z,84.15
2022-09-28T16:45:24.896Z,84.15
2022-09-28T16:47:56.248Z,84.73
2022-09-28T16:50:27.196Z,84.15
2022-09-28T16:53:19.677Z,84.30
2022-09-28T16:55:50.379Z,84.10
2022-09-28T16:58:18.943Z,84.57
2022-09-28T17:00:47.254Z,84.44
2022-09-28T17:03:18.663Z,84.32
2022-09-28T17:05:49.196Z,84.39
2022-09-28T17:08:19.131Z,84.69
2022-09-28T17:13:40.938Z,84.60
2022-09-28T17:16:14.019Z,84.52
2022-09-28T17:18:42.483Z,84.25
2022-09-28T17:21:15.942Z,84.10
2022-09-28T17:23:44.772Z,84.21
2022-09-28T17:26:19.465Z,84.51
2022-09-28T17:28:47.861Z,84.10
2022-09-28T17:31:17.561Z,83.98
2022-09-28T17:33:46.011Z,83.83
2022-09-28T17:36:18.358Z,83.96
2022-09-28T17:38:48.347Z,83.49
2022-09-28T17:41:20.662Z,83.53
2022-09-28T17:43:49.795Z,83.52
2022-09-28T17:46:27.348Z,83.48
2022-09-28T17:48:59.564Z,83.81
2022-09-28T17:51:31.197Z,83.84
2022-09-28T17:54:01.673Z,83.86
2022-09-28T17:56:32.410Z,83.92
2022-09-28T17:59:04.012Z,83.79
2022-09-28T18:01:34.314Z,83.98
2022-09-28T18:04:04.164Z,83.59
2022-09-28T18:06:34.554Z,83.79
2022-09-28T18:09:04.539Z,84.06
2022-09-28T18:11:33.911Z,84.14
2022-09-28T18:14:04.936Z,84.02
2022-09-28T18:16:35.405Z,83.96
2022-09-28T18:19:03.869Z,84.55
2022-09-28T18:21:34.043Z,84.28
2022-09-28T18:24:02.889Z,84.81
2022-09-28T18:26:32.506Z,84.42
2022-09-28T18:29:01.093Z,84.82
2022-09-28T18:31:29.653Z,84.94
2022-09-28T18:34:01.052Z,84.88
2022-09-28T18:36:30.686Z,84.54
2022-09-28T18:39:03.139Z,84.88
2022-09-28T18:41:31.771Z,84.69
2022-09-28T18:44:01.563Z,84.89
2022-09-28T18:46:36.099Z,84.71
2022-09-28T18:49:06.851Z,84.72
2022-09-28T18:51:35.439Z,84.63
2022-09-28T18:54:07.112Z,84.81
2022-09-28T18:56:37.987Z,84.94
2022-09-28T18:59:11.919Z,84.60
2022-09-28T19:01:41.785Z,84.80
2022-09-28T19:04:12.108Z,85.03
2022-09-28T19:06:41.730Z,85.03
2022-09-28T19:09:12.343Z,84.59
2022-09-28T19:11:40.770Z,85.27
2022-09-28T19:14:11.050Z,85.06
2022-09-28T19:16:41.620Z,85.01
2022-09-28T19:19:12.554Z,85.44
2022-09-28T19:21:44.685Z,85.06
2022-09-28T19:24:19.528Z,85.09
2022-09-28T19:26:48.985Z,85.68
2022-09-28T19:29:17.469Z,85.85
2022-09-28T19:31:45.896Z,86.22
2022-09-28T19:34:14.629Z,85.91
2022-09-28T19:36:43.472Z,85.97
2022-09-28T19:39:15.073Z,86.07
2022-09-28T19:41:49.463Z,85.92
2022-09-28T19:44:24.599Z,85.98
2022-09-28T19:46:55.403Z,86.30
2022-09-28T19:49:24.825Z,86.44
2022-09-28T19:54:46.114Z,86.38
2022-09-28T19:57:16.182Z,87.08
2022-09-28T19:59:48.361Z,86.57
2022-09-28T20:02:19.809Z,86.44
2022-09-28T20:04:48.295Z,86.34
2022-09-28T20:07:17.059Z,86.88
2022-09-28T20:09:45.457Z,87.12
2022-09-28T20:12:15.254Z,86.95
2022-09-28T20:14:43.695Z,86.58
2022-09-28T20:17:12.070Z,86.88
2022-09-28T20:19:40.400Z,86.87
2022-09-28T20:22:08.936Z,87.14
2022-09-28T20:24:37.269Z,86.79
2022-09-28T20:27:05.946Z,86.77
2022-09-28T20:29:38.170Z,87.07
2022-09-28T20:32:06.651Z,87.11
2022-09-28T20:34:35.027Z,87.27
2022-09-28T20:37:03.411Z,87.29
2022-09-28T20:39:31.727Z,87.71
2022-09-28T20:42:00.127Z,87.44
2022-09-28T20:44:28.468Z,87.03
2022-09-28T20:46:58.204Z,87.52
2022-09-28T20:49:28.006Z,86.91
2022-09-28T20:51:56.369Z,86.76
2022-09-28T20:54:25.539Z,86.02
2022-09-28T20:56:53.877Z,86.62
2022-09-28T20:59:25.969Z,86.44
2022-09-28T21:01:54.424Z,86.19
2022-09-28T21:04:24.300Z,86.20
2022-09-28T21:06:53.188Z,86.85
2022-09-28T21:09:21.560Z,86.03
2022-09-28T21:11:49.954Z,86.34
2022-09-28T21:14:18.587Z,86.71
2022-09-28T21:16:46.979Z,85.83
2022-09-28T21:19:15.480Z,85.69
2022-09-28T21:21:45.337Z,85.96
2022-09-28T21:24:13.718Z,85.51
2022-09-28T21:26:42.226Z,85.53
2022-09-28T21:29:13.872Z,86.00
2022-09-28T21:31:51.217Z,85.34
2022-09-28T21:34:21.411Z,86.00
2022-09-28T21:36:52.557Z,85.32
2022-09-28T21:39:21.423Z,85.83
2022-09-28T21:41:50.283Z,85.63
2022-09-28T21:44:18.795Z,85.98
2022-09-28T21:46:47.324Z,86.03
2022-09-28T21:49:15.687Z,85.74
2022-09-28T21:51:47.198Z,85.64
2022-09-28T21:54:17.053Z,86.07
2022-09-28T21:56:45.513Z,85.64
2022-09-28T21:59:14.051Z,85.33
2022-09-28T22:01:42.888Z,85.21
2022-09-28T22:04:11.996Z,86.01
2022-09-28T22:06:40.463Z,85.99
2022-09-28T22:09:08.900Z,85.80
2022-09-28T22:11:38.621Z,85.18
2022-09-28T22:14:07.609Z,86.19
2022-09-28T22:16:36.299Z,85.88
2022-09-28T22:19:04.831Z,85.59
2022-09-28T22:21:34.919Z,86.15
2022-09-28T22:24:06.428Z,86.21
2022-09-28T22:26:37.444Z,85.90
2022-09-28T22:29:09.255Z,85.97
2022-09-28T22:31:40.148Z,85.39
2022-09-28T22:34:10.277Z,85.58
2022-09-28T22:36:38.675Z,85.69
2022-09-28T22:39:07.157Z,85.91
2022-09-28T22:41:35.503Z,86.04
2022-09-28T22:44:03.966Z,85.51
2022-09-28T22:46:33.729Z,85.62
2022-09-28T22:49:02.326Z,85.63
2022-09-28T22:51:32.040Z,85.38
2022-09-28T22:54:01.159Z,86.11
2022-09-28T22:56:31.076Z,85.67
2022-09-28T22:58:59.423Z,85.52
2022-09-28T23:01:29.859Z,85.89
2022-09-28T23:04:00.058Z,86.12
2022-09-28T23:06:30.822Z,85.85
2022-09-28T23:08:59.286Z,85.85
2022-09-28T23:11:28.496Z,85.57
2022-09-28T23:13:58.113Z,84.91
2022-09-28T23:16:27.476Z,85.28
2022-09-28T23:18:56.806Z,85.12
2022-09-28T23:21:28.190Z,85.15
2022-09-28T23:23:58.851Z,84.73
2022-09-28T23:26:29.786Z,84.55
2022-09-28T23:28:58.872Z,84.48
2022-09-28T23:31:29.330Z,85.13
2022-09-28T23:33:59.393Z,84.76
2022-09-28T23:36:29.113Z,84.73
2022-09-28T23:38:57.572Z,84.52
2022-09-28T23:41:26.197Z,84.33
2022-09-28T23:43:54.862Z,84.81
2022-09-28T23:46:23.309Z,84.74
2022-09-28T23:48:51.786Z,84.30
2022-09-28T23:51:20.125Z,84.41
2022-09-28T23:53:50.020Z,84.27
2022-09-28T23:56:18.286Z,84.61
2022-09-28T23:58:46.757Z,83.86
